sensor_id;sensor_type;location;lat;lon;timestamp;P1;durP1;ratioP1;P2;durP2;ratioP2
13443;SDS011;6794;59.218;18.218;2023-01-08T00:02:23;39.37;;;18.90;;
13443;SDS011;6794;59.218;18.218;2023-01-08T00:04:50;35.23;;;12.13;;
13443;SDS011;6794;59.218;18.218;2023-01-08T00:07:16;36.37;;;13.87;;
13443;SDS011;6794;59.218;18.218;2023-01-08T00:09:42;47.55;;;17.98;;
13443;SDS011;6794;59.218;18.218;2023-01-08T00:12:08;39.20;;;13.53;;
13443;SDS011;6794;59.218;18.218;2023-01-08T00:14:34;40.70;;;13.73;;
13443;SDS011;6794;59.218;18.218;2023-01-08T00:17:00;39.47;;;14.17;;
13443;SDS011;6794;59.218;18.218;2023-01-08T00:19:26;39.10;;;13.90;;
13443;SDS011;6794;59.218;18.218;2023-01-08T00:21:53;34.53;;;14.07;;
13443;SDS011;6794;59.218;18.218;2023-01-08T00:24:19;41.80;;;13.93;;
13443;SDS011;6794;59.218;18.218;2023-01-08T00:26:45;26.37;;;10.07;;
13443;SDS011;6794;59.218;18.218;2023-01-08T00:29:11;34.53;;;11.60;;
13443;SDS011;6794;59.218;18.218;2023-01-08T00:31:37;36.58;;;13.55;;
13443;SDS011;6794;59.218;18.218;2023-01-08T00:34:03;28.33;;;11.20;;
13443;SDS011;6794;59.218;18.218;2023-01-08T00:36:29;37.00;;;14.10;;
13443;SDS011;6794;59.218;18.218;2023-01-08T00:38:57;36.00;;;14.47;;
13443;SDS011;6794;59.218;18.218;2023-01-08T00:41:23;30.10;;;13.10;;
13443;SDS011;6794;59.218;18.218;2023-01-08T00:43:49;32.22;;;15.57;;
13443;SDS011;6794;59.218;18.218;2023-01-08T00:46:15;24.13;;;10.03;;
13443;SDS011;6794;59.218;18.218;2023-01-08T00:48:41;27.53;;;11.73;;
13443;SDS011;6794;59.218;18.218;2023-01-08T00:51:07;20.70;;;8.80;;
13443;SDS011;6794;59.218;18.218;2023-01-08T00:53:33;24.30;;;11.20;;
13443;SDS011;6794;59.218;18.218;2023-01-08T00:56:00;22.47;;;9.20;;
13443;SDS011;6794;59.218;18.218;2023-01-08T00:58:26;23.00;;;9.80;;
13443;SDS011;6794;59.218;18.218;2023-01-08T01:00:52;17.63;;;7.53;;
13443;SDS011;6794;59.218;18.218;2023-01-08T01:03:18;23.02;;;10.57;;
13443;SDS011;6794;59.218;18.218;2023-01-08T01:05:44;19.00;;;9.30;;
13443;SDS011;6794;59.218;18.218;2023-01-08T01:08:10;17.83;;;8.03;;
13443;SDS011;6794;59.218;18.218;2023-01-08T01:10:40;14.60;;;7.00;;
13443;SDS011;6794;59.218;18.218;2023-01-08T01:13:06;20.55;;;10.85;;
13443;SDS011;6794;59.218;18.218;2023-01-08T01:15:32;16.13;;;8.73;;
13443;SDS011;6794;59.218;18.218;2023-01-08T01:17:58;16.70;;;8.63;;
13443;SDS011;6794;59.218;18.218;2023-01-08T01:20:24;20.50;;;11.23;;
13443;SDS011;6794;59.218;18.218;2023-01-08T01:22:50;12.27;;;6.37;;
13443;SDS011;6794;59.218;18.218;2023-01-08T01:25:16;12.10;;;7.07;;
13443;SDS011;6794;59.218;18.218;2023-01-08T01:27:42;18.67;;;10.02;;
13443;SDS011;6794;59.218;18.218;2023-01-08T01:30:08;11.37;;;6.17;;
13443;SDS011;6794;59.218;18.218;2023-01-08T01:32:34;27.53;;;16.63;;
13443;SDS011;6794;59.218;18.218;2023-01-08T01:35:01;17.98;;;9.82;;
13443;SDS011;6794;59.218;18.218;2023-01-08T01:37:27;15.20;;;7.30;;
13443;SDS011;6794;59.218;18.218;2023-01-08T01:39:53;15.20;;;8.07;;
13443;SDS011;6794;59.218;18.218;2023-01-08T01:42:20;20.00;;;9.55;;
13443;SDS011;6794;59.218;18.218;2023-01-08T01:45:11;17.00;;;7.10;;
13443;SDS011;6794;59.218;18.218;2023-01-08T01:47:38;12.30;;;5.87;;
13443;SDS011;6794;59.218;18.218;2023-01-08T01:50:08;20.58;;;10.57;;
13443;SDS011;6794;59.218;18.218;2023-01-08T01:52:42;12.87;;;6.47;;
13443;SDS011;6794;59.218;18.218;2023-01-08T01:55:12;15.77;;;7.13;;
13443;SDS011;6794;59.218;18.218;2023-01-08T01:57:38;15.50;;;6.73;;
13443;SDS011;6794;59.218;18.218;2023-01-08T02:00:05;15.57;;;7.47;;
13443;SDS011;6794;59.218;18.218;2023-01-08T02:02:32;14.73;;;6.70;;
13443;SDS011;6794;59.218;18.218;2023-01-08T02:04:59;13.07;;;6.00;;
13443;SDS011;6794;59.218;18.218;2023-01-08T02:10:18;8.10;;;4.70;;
13443;SDS011;6794;59.218;18.218;2023-01-08T02:13:04;15.35;;;8.77;;
13443;SDS011;6794;59.218;18.218;2023-01-08T02:15:37;11.40;;;6.77;;
13443;SDS011;6794;59.218;18.218;2023-01-08T02:18:18;12.32;;;7.03;;
13443;SDS011;6794;59.218;18.218;2023-01-08T02:20:46;9.70;;;5.17;;
13443;SDS011;6794;59.218;18.218;2023-01-08T02:26:10;12.45;;;8.32;;
13443;SDS011;6794;59.218;18.218;2023-01-08T02:28:59;11.17;;;5.90;;
13443;SDS011;6794;59.218;18.218;2023-01-08T02:31:24;10.80;;;5.95;;
13443;SDS011;6794;59.218;18.218;2023-01-08T02:33:51;8.33;;;4.70;;
13443;SDS011;6794;59.218;18.218;2023-01-08T02:36:28;10.20;;;4.33;;
13443;SDS011;6794;59.218;18.218;2023-01-08T02:44:32;11.25;;;5.88;;
13443;SDS011;6794;59.218;18.218;2023-01-08T02:47:00;6.10;;;4.00;;
13443;SDS011;6794;59.218;18.218;2023-01-08T02:49:29;6.55;;;4.32;;
13443;SDS011;6794;59.218;18.218;2023-01-08T02:51:57;6.63;;;3.53;;
13443;SDS011;6794;59.218;18.218;2023-01-08T02:54:26;5.70;;;3.63;;
13443;SDS011;6794;59.218;18.218;2023-01-08T02:57:01;7.45;;;4.78;;
13443;SDS011;6794;59.218;18.218;2023-01-08T02:59:28;6.80;;;3.77;;
13443;SDS011;6794;59.218;18.218;2023-01-08T03:01:56;4.57;;;3.37;;
13443;SDS011;6794;59.218;18.218;2023-01-08T03:04:23;6.63;;;3.60;;
13443;SDS011;6794;59.218;18.218;2023-01-08T03:06:50;6.87;;;3.03;;
13443;SDS011;6794;59.218;18.218;2023-01-08T03:09:16;8.20;;;4.70;;
13443;SDS011;6794;59.218;18.218;2023-01-08T03:14:14;5.72;;;3.85;;
13443;SDS011;6794;59.218;18.218;2023-01-08T03:19:29;6.63;;;3.33;;
13443;SDS011;6794;59.218;18.218;2023-01-08T03:21:57;4.83;;;2.90;;
13443;SDS011;6794;59.218;18.218;2023-01-08T03:24:27;6.70;;;2.60;;
13443;SDS011;6794;59.218;18.218;2023-01-08T03:26:55;5.78;;;3.72;;
13443;SDS011;6794;59.218;18.218;2023-01-08T03:29:22;4.67;;;3.30;;
13443;SDS011;6794;59.218;18.218;2023-01-08T03:31:49;5.90;;;3.55;;
13443;SDS011;6794;59.218;18.218;2023-01-08T03:34:16;4.83;;;3.27;;
13443;SDS011;6794;59.218;18.218;2023-01-08T03:36:45;5.30;;;3.30;;
13443;SDS011;6794;59.218;18.218;2023-01-08T03:39:15;3.43;;;2.47;;
13443;SDS011;6794;59.218;18.218;2023-01-08T03:41:41;4.20;;;2.67;;
13443;SDS011;6794;59.218;18.218;2023-01-08T03:44:07;6.40;;;3.93;;
13443;SDS011;6794;59.218;18.218;2023-01-08T03:46:35;6.37;;;3.80;;
13443;SDS011;6794;59.218;18.218;2023-01-08T03:49:02;6.80;;;2.90;;
13443;SDS011;6794;59.218;18.218;2023-01-08T03:51:37;7.72;;;4.10;;
13443;SDS011;6794;59.218;18.218;2023-01-08T03:54:03;5.40;;;2.50;;
13443;SDS011;6794;59.218;18.218;2023-01-08T03:56:29;4.60;;;2.57;;
13443;SDS011;6794;59.218;18.218;2023-01-08T03:58:55;4.57;;;2.60;;
13443;SDS011;6794;59.218;18.218;2023-01-08T04:01:21;3.83;;;2.67;;
13443;SDS011;6794;59.218;18.218;2023-01-08T04:03:47;4.05;;;2.80;;
13443;SDS011;6794;59.218;18.218;2023-01-08T04:06:13;5.03;;;2.63;;
13443;SDS011;6794;59.218;18.218;2023-01-08T04:08:39;4.30;;;2.27;;
13443;SDS011;6794;59.218;18.218;2023-01-08T04:11:05;5.55;;;3.75;;
13443;SDS011;6794;59.218;18.218;2023-01-08T04:13:31;4.97;;;2.80;;
13443;SDS011;6794;59.218;18.218;2023-01-08T04:15:57;6.00;;;2.83;;
13443;SDS011;6794;59.218;18.218;2023-01-08T04:18:23;3.80;;;2.70;;
13443;SDS011;6794;59.218;18.218;2023-01-08T04:20:49;3.93;;;2.10;;
13443;SDS011;6794;59.218;18.218;2023-01-08T04:23:15;3.53;;;2.80;;
13443;SDS011;6794;59.218;18.218;2023-01-08T04:25:42;5.00;;;3.22;;
13443;SDS011;6794;59.218;18.218;2023-01-08T04:28:08;3.97;;;2.60;;
13443;SDS011;6794;59.218;18.218;2023-01-08T04:30:34;2.73;;;1.90;;
13443;SDS011;6794;59.218;18.218;2023-01-08T04:33:00;4.97;;;2.92;;
13443;SDS011;6794;59.218;18.218;2023-01-08T04:35:26;3.47;;;2.27;;
13443;SDS011;6794;59.218;18.218;2023-01-08T04:37:52;2.50;;;2.00;;
13443;SDS011;6794;59.218;18.218;2023-01-08T04:40:18;4.47;;;2.85;;
13443;SDS011;6794;59.218;18.218;2023-01-08T04:42:44;3.67;;;2.33;;
13443;SDS011;6794;59.218;18.218;2023-01-08T04:45:10;3.13;;;2.10;;
13443;SDS011;6794;59.218;18.218;2023-01-08T04:47:36;4.93;;;2.50;;
13443;SDS011;6794;59.218;18.218;2023-01-08T04:50:02;3.03;;;1.87;;
13443;SDS011;6794;59.218;18.218;2023-01-08T04:52:28;4.13;;;2.23;;
13443;SDS011;6794;59.218;18.218;2023-01-08T04:54:54;2.83;;;1.63;;
13443;SDS011;6794;59.218;18.218;2023-01-08T04:57:20;3.78;;;2.50;;
13443;SDS011;6794;59.218;18.218;2023-01-08T04:59:46;3.53;;;1.90;;
13443;SDS011;6794;59.218;18.218;2023-01-08T05:02:12;1.77;;;1.50;;
13443;SDS011;6794;59.218;18.218;2023-01-08T05:04:38;3.10;;;1.47;;
13443;SDS011;6794;59.218;18.218;2023-01-08T05:07:04;2.43;;;1.80;;
13443;SDS011;6794;59.218;18.218;2023-01-08T05:09:31;3.55;;;2.60;;
13443;SDS011;6794;59.218;18.218;2023-01-08T05:11:57;5.17;;;2.23;;
13443;SDS011;6794;59.218;18.218;2023-01-08T05:14:23;3.43;;;1.80;;
13443;SDS011;6794;59.218;18.218;2023-01-08T05:16:49;4.00;;;2.50;;
13443;SDS011;6794;59.218;18.218;2023-01-08T05:19:16;3.03;;;2.10;;
13443;SDS011;6794;59.218;18.218;2023-01-08T05:21:42;2.70;;;1.90;;
13443;SDS011;6794;59.218;18.218;2023-01-08T05:24:08;4.95;;;3.20;;
13443;SDS011;6794;59.218;18.218;2023-01-08T05:26:34;4.00;;;2.20;;
13443;SDS011;6794;59.218;18.218;2023-01-08T05:29:00;3.75;;;2.60;;
13443;SDS011;6794;59.218;18.218;2023-01-08T05:31:26;3.60;;;2.03;;
13443;SDS011;6794;59.218;18.218;2023-01-08T05:33:52;5.07;;;2.13;;
13443;SDS011;6794;59.218;18.218;2023-01-08T05:36:18;4.68;;;3.10;;
13443;SDS011;6794;59.218;18.218;2023-01-08T05:38:44;3.80;;;2.20;;
13443;SDS011;6794;59.218;18.218;2023-01-08T05:41:10;3.43;;;2.13;;
13443;SDS011;6794;59.218;18.218;2023-01-08T05:43:36;4.60;;;2.20;;
13443;SDS011;6794;59.218;18.218;2023-01-08T05:46:02;4.30;;;2.00;;
13443;SDS011;6794;59.218;18.218;2023-01-08T05:48:30;3.50;;;2.13;;
13443;SDS011;6794;59.218;18.218;2023-01-08T05:50:56;6.90;;;3.25;;
13443;SDS011;6794;59.218;18.218;2023-01-08T05:53:22;6.03;;;2.30;;
13443;SDS011;6794;59.218;18.218;2023-01-08T05:55:49;3.70;;;2.10;;
13443;SDS011;6794;59.218;18.218;2023-01-08T05:58:15;3.07;;;1.93;;
13443;SDS011;6794;59.218;18.218;2023-01-08T06:00:45;2.50;;;1.87;;
13443;SDS011;6794;59.218;18.218;2023-01-08T06:03:11;3.37;;;2.03;;
13443;SDS011;6794;59.218;18.218;2023-01-08T06:05:37;5.43;;;2.83;;
13443;SDS011;6794;59.218;18.218;2023-01-08T06:08:03;4.20;;;2.57;;
13443;SDS011;6794;59.218;18.218;2023-01-08T06:10:29;4.73;;;2.30;;
13443;SDS011;6794;59.218;18.218;2023-01-08T06:12:55;6.90;;;3.58;;
13443;SDS011;6794;59.218;18.218;2023-01-08T06:15:21;4.80;;;2.73;;
13443;SDS011;6794;59.218;18.218;2023-01-08T06:17:47;5.13;;;3.10;;
13443;SDS011;6794;59.218;18.218;2023-01-08T06:20:13;8.05;;;4.22;;
13443;SDS011;6794;59.218;18.218;2023-01-08T06:22:39;9.00;;;3.60;;
13443;SDS011;6794;59.218;18.218;2023-01-08T06:25:05;8.10;;;3.27;;
13443;SDS011;6794;59.218;18.218;2023-01-08T06:27:31;8.05;;;4.45;;
13443;SDS011;6794;59.218;18.218;2023-01-08T06:29:57;6.10;;;3.33;;
13443;SDS011;6794;59.218;18.218;2023-01-08T06:32:23;7.87;;;3.57;;
13443;SDS011;6794;59.218;18.218;2023-01-08T06:34:49;6.20;;;3.30;;
13443;SDS011;6794;59.218;18.218;2023-01-08T06:37:15;6.83;;;3.37;;
13443;SDS011;6794;59.218;18.218;2023-01-08T06:39:41;7.05;;;4.20;;
13443;SDS011;6794;59.218;18.218;2023-01-08T06:42:07;4.93;;;2.93;;
13443;SDS011;6794;59.218;18.218;2023-01-08T06:44:33;6.97;;;3.43;;
13443;SDS011;6794;59.218;18.218;2023-01-08T06:46:59;8.68;;;5.80;;
13443;SDS011;6794;59.218;18.218;2023-01-08T06:49:25;5.30;;;3.60;;
13443;SDS011;6794;59.218;18.218;2023-01-08T06:51:51;4.30;;;2.90;;
13443;SDS011;6794;59.218;18.218;2023-01-08T06:54:18;5.23;;;3.27;;
13443;SDS011;6794;59.218;18.218;2023-01-08T06:56:54;6.00;;;2.93;;
13443;SDS011;6794;59.218;18.218;2023-01-08T06:59:21;9.23;;;5.80;;
13443;SDS011;6794;59.218;18.218;2023-01-08T07:01:48;4.73;;;2.90;;
13443;SDS011;6794;59.218;18.218;2023-01-08T07:04:14;8.07;;;3.70;;
13443;SDS011;6794;59.218;18.218;2023-01-08T07:06:40;8.52;;;5.60;;
13443;SDS011;6794;59.218;18.218;2023-01-08T07:09:08;8.43;;;4.13;;
13443;SDS011;6794;59.218;18.218;2023-01-08T07:11:34;7.43;;;3.60;;
13443;SDS011;6794;59.218;18.218;2023-01-08T07:14:00;5.43;;;3.40;;
13443;SDS011;6794;59.218;18.218;2023-01-08T07:16:26;8.50;;;4.60;;
13443;SDS011;6794;59.218;18.218;2023-01-08T07:18:52;7.30;;;4.20;;
13443;SDS011;6794;59.218;18.218;2023-01-08T07:21:18;11.90;;;5.27;;
13443;SDS011;6794;59.218;18.218;2023-01-08T07:23:49;9.03;;;4.97;;
13443;SDS011;6794;59.218;18.218;2023-01-08T07:26:15;9.07;;;4.77;;
13443;SDS011;6794;59.218;18.218;2023-01-08T07:28:42;10.57;;;4.60;;
13443;SDS011;6794;59.218;18.218;2023-01-08T07:31:08;8.57;;;3.97;;
13443;SDS011;6794;59.218;18.218;2023-01-08T07:33:34;14.98;;;6.07;;
13443;SDS011;6794;59.218;18.218;2023-01-08T07:36:00;12.17;;;5.67;;
13443;SDS011;6794;59.218;18.218;2023-01-08T07:38:26;9.47;;;5.23;;
13443;SDS011;6794;59.218;18.218;2023-01-08T07:40:52;17.25;;;10.40;;
13443;SDS011;6794;59.218;18.218;2023-01-08T07:43:19;12.67;;;6.40;;
13443;SDS011;6794;59.218;18.218;2023-01-08T07:45:45;11.40;;;5.43;;
13443;SDS011;6794;59.218;18.218;2023-01-08T07:48:11;17.17;;;7.60;;
13443;SDS011;6794;59.218;18.218;2023-01-08T07:50:40;15.90;;;6.97;;
13443;SDS011;6794;59.218;18.218;2023-01-08T07:53:07;21.77;;;8.47;;
13443;SDS011;6794;59.218;18.218;2023-01-08T07:55:33;24.58;;;10.32;;
13443;SDS011;6794;59.218;18.218;2023-01-08T07:57:59;21.97;;;7.47;;
13443;SDS011;6794;59.218;18.218;2023-01-08T08:00:25;21.47;;;8.77;;
13443;SDS011;6794;59.218;18.218;2023-01-08T08:02:51;24.75;;;10.40;;
13443;SDS011;6794;59.218;18.218;2023-01-08T08:05:17;15.97;;;8.00;;
13443;SDS011;6794;59.218;18.218;2023-01-08T08:07:43;14.10;;;7.17;;
13443;SDS011;6794;59.218;18.218;2023-01-08T08:10:09;19.58;;;9.52;;
13443;SDS011;6794;59.218;18.218;2023-01-08T08:12:36;13.90;;;5.73;;
13443;SDS011;6794;59.218;18.218;2023-01-08T08:15:02;12.70;;;6.28;;
13443;SDS011;6794;59.218;18.218;2023-01-08T08:17:28;11.43;;;5.10;;
13443;SDS011;6794;59.218;18.218;2023-01-08T08:19:54;9.33;;;4.20;;
13443;SDS011;6794;59.218;18.218;2023-01-08T08:22:20;12.25;;;6.43;;
13443;SDS011;6794;59.218;18.218;2023-01-08T08:24:46;9.97;;;4.23;;
13443;SDS011;6794;59.218;18.218;2023-01-08T08:27:12;10.05;;;5.32;;
13443;SDS011;6794;59.218;18.218;2023-01-08T08:29:38;5.30;;;3.77;;
13443;SDS011;6794;59.218;18.218;2023-01-08T08:32:04;9.50;;;5.10;;
13443;SDS011;6794;59.218;18.218;2023-01-08T08:34:30;6.13;;;3.40;;
13443;SDS011;6794;59.218;18.218;2023-01-08T08:36:57;8.88;;;4.75;;
13443;SDS011;6794;59.218;18.218;2023-01-08T08:39:23;5.87;;;3.33;;
13443;SDS011;6794;59.218;18.218;2023-01-08T08:41:49;8.32;;;4.05;;
13443;SDS011;6794;59.218;18.218;2023-01-08T08:44:15;6.13;;;2.90;;
13443;SDS011;6794;59.218;18.218;2023-01-08T08:46:41;6.13;;;3.20;;
13443;SDS011;6794;59.218;18.218;2023-01-08T08:49:07;7.10;;;3.73;;
13443;SDS011;6794;59.218;18.218;2023-01-08T08:51:33;18.30;;;8.30;;
13443;SDS011;6794;59.218;18.218;2023-01-08T08:53:59;18.37;;;7.13;;
13443;SDS011;6794;59.218;18.218;2023-01-08T08:56:25;29.88;;;10.57;;
13443;SDS011;6794;59.218;18.218;2023-01-08T08:58:53;35.50;;;9.07;;
13443;SDS011;6794;59.218;18.218;2023-01-08T09:01:19;37.70;;;9.67;;
13443;SDS011;6794;59.218;18.218;2023-01-08T09:03:45;60.78;;;16.23;;
13443;SDS011;6794;59.218;18.218;2023-01-08T09:06:12;56.47;;;12.57;;
13443;SDS011;6794;59.218;18.218;2023-01-08T09:08:39;63.40;;;15.32;;
13443;SDS011;6794;59.218;18.218;2023-01-08T09:11:05;57.03;;;11.13;;
13443;SDS011;6794;59.218;18.218;2023-01-08T09:13:31;71.73;;;13.30;;
13443;SDS011;6794;59.218;18.218;2023-01-08T09:15:57;86.25;;;17.38;;
13443;SDS011;6794;59.218;18.218;2023-01-08T09:18:23;127.73;;;17.50;;
13443;SDS011;6794;59.218;18.218;2023-01-08T09:20:49;93.20;;;19.87;;
13443;SDS011;6794;59.218;18.218;2023-01-08T09:23:15;82.13;;;15.98;;
13443;SDS011;6794;59.218;18.218;2023-01-08T09:25:41;99.40;;;18.93;;
13443;SDS011;6794;59.218;18.218;2023-01-08T09:28:09;62.93;;;13.57;;
13443;SDS011;6794;59.218;18.218;2023-01-08T09:30:36;91.32;;;21.88;;
13443;SDS011;6794;59.218;18.218;2023-01-08T09:33:02;81.03;;;15.70;;
13443;SDS011;6794;59.218;18.218;2023-01-08T09:35:29;83.90;;;15.03;;
13443;SDS011;6794;59.218;18.218;2023-01-08T09:37:55;113.85;;;21.85;;
13443;SDS011;6794;59.218;18.218;2023-01-08T09:40:21;108.60;;;22.75;;
13443;SDS011;6794;59.218;18.218;2023-01-08T09:42:56;88.00;;;17.43;;
13443;SDS011;6794;59.218;18.218;2023-01-08T09:45:44;139.18;;;28.27;;
13443;SDS011;6794;59.218;18.218;2023-01-08T09:48:12;105.70;;;18.70;;
13443;SDS011;6794;59.218;18.218;2023-01-08T09:50:38;119.33;;;21.13;;
13443;SDS011;6794;59.218;18.218;2023-01-08T09:53:07;162.18;;;31.27;;
13443;SDS011;6794;59.218;18.218;2023-01-08T09:55:35;136.97;;;24.73;;
13443;SDS011;6794;59.218;18.218;2023-01-08T09:58:01;140.10;;;26.87;;
13443;SDS011;6794;59.218;18.218;2023-01-08T10:00:28;144.90;;;28.38;;
13443;SDS011;6794;59.218;18.218;2023-01-08T10:02:55;153.50;;;27.60;;
13443;SDS011;6794;59.218;18.218;2023-01-08T10:05:21;169.37;;;25.03;;
13443;SDS011;6794;59.218;18.218;2023-01-08T10:07:47;177.23;;;35.53;;
13443;SDS011;6794;59.218;18.218;2023-01-08T10:12:46;155.20;;;24.80;;
13443;SDS011;6794;59.218;18.218;2023-01-08T10:15:13;232.80;;;53.50;;
13443;SDS011;6794;59.218;18.218;2023-01-08T10:17:41;129.03;;;23.37;;
13443;SDS011;6794;59.218;18.218;2023-01-08T10:20:11;140.40;;;26.80;;
13443;SDS011;6794;59.218;18.218;2023-01-08T10:22:37;187.57;;;38.55;;
13443;SDS011;6794;59.218;18.218;2023-01-08T10:25:04;185.90;;;27.87;;
13443;SDS011;6794;59.218;18.218;2023-01-08T10:27:31;170.40;;;23.77;;
13443;SDS011;6794;59.218;18.218;2023-01-08T10:30:03;222.63;;;31.98;;
13443;SDS011;6794;59.218;18.218;2023-01-08T10:32:30;170.23;;;27.37;;
13443;SDS011;6794;59.218;18.218;2023-01-08T10:35:01;148.57;;;24.00;;
13443;SDS011;6794;59.218;18.218;2023-01-08T10:37:31;154.27;;;29.30;;
13443;SDS011;6794;59.218;18.218;2023-01-08T10:40:03;140.57;;;23.00;;
13443;SDS011;6794;59.218;18.218;2023-01-08T10:42:32;149.43;;;23.53;;
13443;SDS011;6794;59.218;18.218;2023-01-08T10:45:01;200.52;;;31.40;;
13443;SDS011;6794;59.218;18.218;2023-01-08T10:47:28;144.57;;;23.60;;
13443;SDS011;6794;59.218;18.218;2023-01-08T10:49:55;113.53;;;21.33;;
13443;SDS011;6794;59.218;18.218;2023-01-08T10:54:48;151.53;;;26.10;;
13443;SDS011;6794;59.218;18.218;2023-01-08T10:59:49;177.47;;;31.87;;
13443;SDS011;6794;59.218;18.218;2023-01-08T11:02:32;142.50;;;22.13;;
13443;SDS011;6794;59.218;18.218;2023-01-08T11:04:59;148.17;;;23.30;;
13443;SDS011;6794;59.218;18.218;2023-01-08T11:07:26;212.23;;;34.90;;
13443;SDS011;6794;59.218;18.218;2023-01-08T11:09:53;194.83;;;27.00;;
13443;SDS011;6794;59.218;18.218;2023-01-08T11:14:54;185.52;;;31.02;;
13443;SDS011;6794;59.218;18.218;2023-01-08T11:17:22;170.63;;;25.60;;
13443;SDS011;6794;59.218;18.218;2023-01-08T11:19:49;148.03;;;24.27;;
13443;SDS011;6794;59.218;18.218;2023-01-08T11:22:20;147.27;;;24.75;;
13443;SDS011;6794;59.218;18.218;2023-01-08T11:24:46;167.60;;;25.20;;
13443;SDS011;6794;59.218;18.218;2023-01-08T11:34:50;138.60;;;22.90;;
13443;SDS011;6794;59.218;18.218;2023-01-08T11:37:20;143.17;;;23.13;;
13443;SDS011;6794;59.218;18.218;2023-01-08T11:39:47;176.10;;;26.73;;
13443;SDS011;6794;59.218;18.218;2023-01-08T11:42:18;153.03;;;24.60;;
13443;SDS011;6794;59.218;18.218;2023-01-08T11:45:02;147.33;;;25.67;;
13443;SDS011;6794;59.218;18.218;2023-01-08T11:47:38;157.52;;;34.90;;
13443;SDS011;6794;59.218;18.218;2023-01-08T11:50:12;168.43;;;32.67;;
13443;SDS011;6794;59.218;18.218;2023-01-08T11:57:38;150.57;;;26.90;;
13443;SDS011;6794;59.218;18.218;2023-01-08T12:07:47;163.63;;;29.47;;
13443;SDS011;6794;59.218;18.218;2023-01-08T12:15:40;161.10;;;26.67;;
13443;SDS011;6794;59.218;18.218;2023-01-08T12:24:05;133.80;;;26.80;;
13443;SDS011;6794;59.218;18.218;2023-01-08T12:34:04;138.50;;;30.13;;
13443;SDS011;6794;59.218;18.218;2023-01-08T12:36:35;115.33;;;22.80;;
13443;SDS011;6794;59.218;18.218;2023-01-08T12:39:03;119.38;;;26.58;;
13443;SDS011;6794;59.218;18.218;2023-01-08T12:41:32;120.00;;;22.33;;
13443;SDS011;6794;59.218;18.218;2023-01-08T12:44:00;128.20;;;22.67;;
13443;SDS011;6794;59.218;18.218;2023-01-08T12:46:29;100.30;;;20.57;;
13443;SDS011;6794;59.218;18.218;2023-01-08T12:48:56;112.47;;;23.17;;
13443;SDS011;6794;59.218;18.218;2023-01-08T12:51:26;102.13;;;23.27;;
13443;SDS011;6794;59.218;18.218;2023-01-08T12:53:56;110.13;;;25.30;;
13443;SDS011;6794;59.218;18.218;2023-01-08T13:04:19;108.10;;;30.03;;
13443;SDS011;6794;59.218;18.218;2023-01-08T13:06:50;130.40;;;32.15;;
13443;SDS011;6794;59.218;18.218;2023-01-08T13:09:20;88.83;;;23.07;;
13443;SDS011;6794;59.218;18.218;2023-01-08T13:11:50;109.43;;;27.83;;
13443;SDS011;6794;59.218;18.218;2023-01-08T13:14:16;135.10;;;30.77;;
13443;SDS011;6794;59.218;18.218;2023-01-08T13:16:43;112.95;;;31.45;;
13443;SDS011;6794;59.218;18.218;2023-01-08T13:19:24;108.57;;;27.43;;
13443;SDS011;6794;59.218;18.218;2023-01-08T13:21:51;122.63;;;29.43;;
13443;SDS011;6794;59.218;18.218;2023-01-08T13:26:53;147.98;;;36.35;;
13443;SDS011;6794;59.218;18.218;2023-01-08T13:29:24;112.60;;;25.57;;
13443;SDS011;6794;59.218;18.218;2023-01-08T13:31:50;80.27;;;22.73;;
13443;SDS011;6794;59.218;18.218;2023-01-08T13:34:38;140.30;;;28.73;;
13443;SDS011;6794;59.218;18.218;2023-01-08T13:37:04;141.82;;;35.92;;
13443;SDS011;6794;59.218;18.218;2023-01-08T13:39:39;117.10;;;30.17;;
13443;SDS011;6794;59.218;18.218;2023-01-08T13:45:01;103.53;;;24.73;;
13443;SDS011;6794;59.218;18.218;2023-01-08T13:49:54;99.70;;;26.80;;
13443;SDS011;6794;59.218;18.218;2023-01-08T13:52:40;84.27;;;22.90;;
13443;SDS011;6794;59.218;18.218;2023-01-08T13:55:40;84.73;;;23.27;;
13443;SDS011;6794;59.218;18.218;2023-01-08T13:58:18;133.23;;;31.48;;
13443;SDS011;6794;59.218;18.218;2023-01-08T14:00:48;85.47;;;25.17;;
13443;SDS011;6794;59.218;18.218;2023-01-08T14:05:51;119.53;;;29.53;;
13443;SDS011;6794;59.218;18.218;2023-01-08T14:08:21;108.60;;;27.47;;
13443;SDS011;6794;59.218;18.218;2023-01-08T14:10:47;135.50;;;36.30;;
13443;SDS011;6794;59.218;18.218;2023-01-08T14:13:14;124.17;;;30.30;;
13443;SDS011;6794;59.218;18.218;2023-01-08T14:15:41;94.77;;;24.40;;
13443;SDS011;6794;59.218;18.218;2023-01-08T14:18:07;112.00;;;26.17;;
13443;SDS011;6794;59.218;18.218;2023-01-08T14:20:37;116.45;;;33.10;;
13443;SDS011;6794;59.218;18.218;2023-01-08T14:23:10;99.20;;;27.67;;
13443;SDS011;6794;59.218;18.218;2023-01-08T14:25:37;110.07;;;30.77;;
13443;SDS011;6794;59.218;18.218;2023-01-08T14:28:03;94.20;;;29.37;;
13443;SDS011;6794;59.218;18.218;2023-01-08T14:30:30;101.78;;;26.90;;
13443;SDS011;6794;59.218;18.218;2023-01-08T14:32:56;88.07;;;25.40;;
13443;SDS011;6794;59.218;18.218;2023-01-08T14:35:27;85.00;;;23.43;;
13443;SDS011;6794;59.218;18.218;2023-01-08T14:37:55;68.17;;;22.20;;
13443;SDS011;6794;59.218;18.218;2023-01-08T14:40:34;77.90;;;25.97;;
13443;SDS011;6794;59.218;18.218;2023-01-08T14:43:05;87.80;;;24.03;;
13443;SDS011;6794;59.218;18.218;2023-01-08T14:45:32;78.20;;;21.90;;
13443;SDS011;6794;59.218;18.218;2023-01-08T14:48:09;72.53;;;26.50;;
13443;SDS011;6794;59.218;18.218;2023-01-08T14:50:36;63.57;;;20.87;;
13443;SDS011;6794;59.218;18.218;2023-01-08T14:55:48;81.10;;;26.90;;
13443;SDS011;6794;59.218;18.218;2023-01-08T14:58:19;79.47;;;25.30;;
13443;SDS011;6794;59.218;18.218;2023-01-08T15:00:49;58.77;;;16.63;;
13443;SDS011;6794;59.218;18.218;2023-01-08T15:03:50;81.65;;;28.05;;
13443;SDS011;6794;59.218;18.218;2023-01-08T15:06:09;63.80;;;20.60;;
13443;SDS011;6794;59.218;18.218;2023-01-08T15:11:05;60.83;;;19.53;;
13443;SDS011;6794;59.218;18.218;2023-01-08T15:13:35;68.73;;;22.00;;
13443;SDS011;6794;59.218;18.218;2023-01-08T15:16:08;56.10;;;17.80;;
13443;SDS011;6794;59.218;18.218;2023-01-08T15:18:39;62.87;;;19.63;;
13443;SDS011;6794;59.218;18.218;2023-01-08T15:21:07;59.60;;;20.40;;
13443;SDS011;6794;59.218;18.218;2023-01-08T15:23:38;73.82;;;24.08;;
13443;SDS011;6794;59.218;18.218;2023-01-08T15:26:08;60.30;;;18.50;;
13443;SDS011;6794;59.218;18.218;2023-01-08T15:28:34;65.40;;;18.90;;
13443;SDS011;6794;59.218;18.218;2023-01-08T15:31:00;77.93;;;20.67;;
13443;SDS011;6794;59.218;18.218;2023-01-08T15:33:26;57.07;;;18.43;;
13443;SDS011;6794;59.218;18.218;2023-01-08T15:35:53;82.90;;;23.23;;
13443;SDS011;6794;59.218;18.218;2023-01-08T15:38:19;72.67;;;18.43;;
13443;SDS011;6794;59.218;18.218;2023-01-08T15:40:46;69.23;;;17.87;;
13443;SDS011;6794;59.218;18.218;2023-01-08T15:43:13;58.93;;;18.00;;
13443;SDS011;6794;59.218;18.218;2023-01-08T15:45:41;57.07;;;21.80;;
13443;SDS011;6794;59.218;18.218;2023-01-08T15:48:07;66.63;;;21.63;;
13443;SDS011;6794;59.218;18.218;2023-01-08T15:50:34;50.33;;;15.97;;
13443;SDS011;6794;59.218;18.218;2023-01-08T15:53:37;51.63;;;17.40;;
13443;SDS011;6794;59.218;18.218;2023-01-08T15:55:56;53.27;;;15.87;;
13443;SDS011;6794;59.218;18.218;2023-01-08T15:58:22;36.83;;;12.87;;
13443;SDS011;6794;59.218;18.218;2023-01-08T16:00:48;53.13;;;17.70;;
13443;SDS011;6794;59.218;18.218;2023-01-08T16:03:14;74.00;;;24.80;;
13443;SDS011;6794;59.218;18.218;2023-01-08T16:05:41;64.80;;;19.20;;